createdAt,value
2022-12-23T06:51:02.065Z,0.857143
2022-12-23T06:52:02.111Z,0.857143
2022-12-23T06:53:02.158Z,0.857143
2022-12-23T06:54:02.176Z,0.857143
2022-12-23T06:55:02.227Z,1.71429
2022-12-23T06:56:02.249Z,1.71429
2022-12-23T06:57:02.283Z,2.5
2022-12-23T06:58:02.309Z,3.35714
2022-12-23T06:59:02.334Z,4.21429
2022-12-23T07:00:02.381Z,5
2022-12-23T07:01:02.478Z,5
2022-12-23T07:02:02.620Z,5.85714
2022-12-23T07:03:02.560Z,6.71429
2022-12-23T07:04:02.499Z,7.5
2022-12-23T07:05:02.539Z,8.35714
2022-12-23T07:06:02.578Z,9.21429
2022-12-23T07:07:02.613Z,10.8571
2022-12-23T07:08:02.684Z,11.7143
2022-12-23T07:09:02.690Z,13.3571
2022-12-23T07:10:02.712Z,15
2022-12-23T07:11:02.783Z,17.5
2022-12-23T07:12:02.784Z,20
2022-12-23T07:13:02.835Z,22.5
2022-12-23T07:14:02.844Z,25
2022-12-23T07:15:02.893Z,27.5
2022-12-23T07:16:02.919Z,30.8571
2022-12-23T07:17:03.007Z,32.5
2022-12-23T07:18:02.998Z,34.2143
2022-12-23T07:19:03.016Z,35.8571
2022-12-23T07:20:03.056Z,37.5
2022-12-23T07:21:03.084Z,40
2022-12-23T07:22:03.119Z,43.3571
2022-12-23T07:23:03.150Z,48.3571
2022-12-23T07:24:03.186Z,51.7143
2022-12-23T07:25:03.209Z,55.8571
2022-12-23T07:26:03.242Z,64.2143
2022-12-23T07:27:03.271Z,75
2022-12-23T07:28:03.308Z,83.3571
2022-12-23T07:29:03.344Z,90.8571
2022-12-23T07:30:03.388Z,98.3571
2022-12-23T07:31:03.461Z,97.5
2022-12-23T07:32:03.494Z,101.714
2022-12-23T07:33:03.482Z,108.357
2022-12-23T07:34:03.548Z,109.214
2022-12-23T07:35:03.562Z,106.714
2022-12-23T07:36:03.591Z,106.714
2022-12-23T07:37:03.636Z,111.714
2022-12-23T07:38:03.671Z,108.357
2022-12-23T07:39:03.716Z,106.714
2022-12-23T07:40:08.368Z,102.5
2022-12-23T07:41:03.764Z,100
2022-12-23T07:42:33.587Z,95
2022-12-23T07:43:03.821Z,95.8571
2022-12-23T07:44:03.855Z,95.8571
2022-12-23T07:45:03.888Z,102.5
2022-12-23T07:46:03.996Z,104.214
2022-12-23T07:47:03.961Z,105
2022-12-23T07:48:03.985Z,100
2022-12-23T07:49:04.027Z,100
2022-12-23T07:50:04.042Z,101.714
2022-12-23T07:51:04.086Z,105
2022-12-23T07:52:04.288Z,108.357
2022-12-23T07:53:04.319Z,110.857
2022-12-23T07:54:04.359Z,112.5
2022-12-23T07:55:04.382Z,121.714
2022-12-23T07:56:04.421Z,120.857
2022-12-23T07:57:04.450Z,125
2022-12-23T07:58:04.493Z,131.714
2022-12-23T07:59:04.520Z,140
2022-12-23T08:00:04.722Z,153.357
2022-12-23T08:01:04.678Z,164.214
2022-12-23T08:02:04.897Z,189.214
2022-12-23T08:03:04.810Z,219.214
2022-12-23T08:04:04.690Z,245.857
2022-12-23T08:05:04.786Z,250.857
2022-12-23T08:06:04.759Z,256.714
2022-12-23T08:07:04.787Z,250
2022-12-23T08:08:04.849Z,230
2022-12-23T08:09:04.876Z,230.857
2022-12-23T08:10:04.970Z,252.5
2022-12-23T08:11:04.956Z,275.857
2022-12-23T08:12:04.973Z,303.357
2022-12-23T08:13:05.063Z,298.357
2022-12-23T08:14:05.061Z,300.857
2022-12-23T08:15:05.069Z,336.714
2022-12-23T08:16:05.184Z,379.214
2022-12-23T08:17:05.356Z,408.357
2022-12-23T08:18:05.176Z,404.214
2022-12-23T08:19:05.210Z,395.857
2022-12-23T08:20:05.236Z,408.357
2022-12-23T08:21:05.275Z,415
2022-12-23T08:22:05.312Z,438.357
2022-12-23T08:23:05.356Z,390.857
2022-12-23T08:24:05.376Z,370.857
2022-12-23T08:25:05.435Z,363.357
2022-12-23T08:26:05.468Z,370.857
2022-12-23T08:27:05.488Z,388.357
2022-12-23T08:28:05.528Z,408.357
2022-12-23T08:29:05.612Z,406.714
2022-12-23T08:30:05.601Z,408.357
2022-12-23T08:31:05.725Z,415
2022-12-23T08:32:05.669Z,427.5
2022-12-23T08:33:05.708Z,426.714
2022-12-23T08:34:05.747Z,445.857
2022-12-23T08:35:05.759Z,485.857
2022-12-23T08:36:05.798Z,495
2022-12-23T08:37:05.829Z,453.357
2022-12-23T08:38:05.864Z,411.714
2022-12-23T08:39:05.902Z,390.857
2022-12-23T08:40:05.944Z,348.357
2022-12-23T08:41:05.954Z,323.357
2022-12-23T08:42:05.993Z,330.857
2022-12-23T08:43:06.022Z,338.357
2022-12-23T08:44:06.064Z,306.714
2022-12-23T08:45:06.148Z,281.714
2022-12-23T08:46:06.148Z,313.357
2022-12-23T08:47:06.156Z,357.5
2022-12-23T08:48:06.181Z,409.214
2022-12-23T08:49:06.226Z,410
2022-12-23T08:50:06.260Z,430.857
2022-12-23T08:51:06.288Z,484.214
2022-12-23T08:52:06.322Z,484.214
2022-12-23T08:53:06.357Z,517.5
2022-12-23T08:54:06.390Z,597.5
2022-12-23T08:55:06.419Z,671.714
2022-12-23T08:56:06.463Z,697.5
2022-12-23T08:57:06.486Z,648.357
2022-12-23T08:58:06.525Z,605.857
2022-12-23T08:59:06.558Z,600.857
2022-12-23T09:00:06.584Z,602.5
2022-12-23T09:01:06.657Z,640.857
2022-12-23T09:02:06.783Z,697.5
2022-12-23T09:03:06.805Z,665
2022-12-23T09:04:06.724Z,665.857
2022-12-23T09:05:06.757Z,815.857
2022-12-23T09:06:06.794Z,870.857
2022-12-23T09:07:06.810Z,812.5
2022-12-23T09:08:06.845Z,842.5
2022-12-23T09:09:06.872Z,948.357
2022-12-23T09:10:06.926Z,892.5
2022-12-23T09:11:06.934Z,895
2022-12-23T09:12:06.968Z,821.714
2022-12-23T09:13:07.001Z,750
2022-12-23T09:14:07.048Z,818.357
2022-12-23T09:15:07.063Z,768.357
2022-12-23T09:16:07.192Z,629.214
2022-12-23T09:17:07.140Z,678.357
2022-12-23T09:18:07.173Z,611.714
2022-12-23T09:19:07.207Z,513.357
2022-12-23T09:20:07.249Z,525
2022-12-23T09:21:07.300Z,524.214
2022-12-23T09:22:07.311Z,579.214
2022-12-23T09:23:07.342Z,596.714
2022-12-23T09:24:07.698Z,634.214
2022-12-23T09:25:07.735Z,706.714
2022-12-23T09:26:07.781Z,755.857
2022-12-23T09:27:07.786Z,789.214
2022-12-23T09:28:07.837Z,731.714
2022-12-23T09:29:07.868Z,740.857
2022-12-23T09:30:07.883Z,709.214
2022-12-23T09:31:08.091Z,720.857
2022-12-23T09:32:07.955Z,698.357
2022-12-23T09:33:08.003Z,765
2022-12-23T09:34:08.013Z,742.5
2022-12-23T09:35:08.045Z,789.214
2022-12-23T09:36:08.092Z,718.357
2022-12-23T09:37:08.106Z,727.5
2022-12-23T09:38:08.138Z,752.5
2022-12-23T09:39:08.167Z,660.857
2022-12-23T09:40:08.221Z,582.5
2022-12-23T09:41:08.238Z,653.357
2022-12-23T09:42:08.271Z,624.214
2022-12-23T09:43:08.305Z,583.357
2022-12-23T09:44:08.346Z,500
2022-12-23T09:45:08.378Z,492.5
2022-12-23T09:46:08.461Z,495.857
2022-12-23T09:47:08.438Z,435.857
2022-12-23T09:48:08.463Z,461.714
2022-12-23T09:49:08.499Z,471.714
2022-12-23T09:50:08.544Z,500.857
2022-12-23T09:51:08.575Z,559.214
2022-12-23T09:52:08.621Z,637.5
2022-12-23T09:53:08.688Z,666.714
2022-12-23T09:54:13.415Z,721.714
2022-12-23T09:55:08.704Z,700
2022-12-23T09:56:08.748Z,759.214
2022-12-23T09:57:08.765Z,761.714
2022-12-23T09:58:08.801Z,657.5
2022-12-23T09:59:08.824Z,666.714
2022-12-23T10:00:08.868Z,661.714
2022-12-23T10:01:08.892Z,737.5
2022-12-23T10:02:09.002Z,700.857
2022-12-23T10:03:09.082Z,725
2022-12-23T10:04:09.065Z,735
2022-12-23T10:05:09.051Z,833.357
2022-12-23T10:06:09.086Z,1030.86
2022-12-23T10:07:09.121Z,910.857
2022-12-23T10:08:09.152Z,910.857
2022-12-23T10:09:09.155Z,1160.86
2022-12-23T10:10:09.194Z,1238.36
2022-12-23T10:11:09.229Z,1224.21
2022-12-23T10:12:09.272Z,1381.71
2022-12-23T10:13:09.302Z,1443.36
2022-12-23T10:14:09.341Z,1250
2022-12-23T10:15:09.381Z,1188.36
2022-12-23T10:16:09.468Z,1250.86
2022-12-23T10:17:09.442Z,1475.86
2022-12-23T10:18:09.493Z,1365.86
2022-12-23T10:19:09.510Z,1505.86
2022-12-23T10:20:09.540Z,1597.5
2022-12-23T10:21:09.614Z,1618.36
2022-12-23T10:22:09.624Z,1463.36
2022-12-23T10:23:09.653Z,1303.36
2022-12-23T10:24:09.681Z,1330.86
2022-12-23T10:25:09.714Z,1302.5
2022-12-23T10:26:09.758Z,1381.71
2022-12-23T10:27:09.792Z,1353.36
2022-12-23T10:28:09.822Z,1270.86
2022-12-23T10:29:12.860Z,1200
2022-12-23T10:30:34.286Z,1190.86
2022-12-23T10:31:38.696Z,1294.21
2022-12-23T10:32:09.978Z,1152.5
2022-12-23T10:33:09.981Z,1238.36
2022-12-23T10:34:10.018Z,1240.86
2022-12-23T10:35:10.045Z,1394.21
2022-12-23T10:36:10.144Z,1030.86
2022-12-23T10:37:10.213Z,953.357
2022-12-23T10:38:10.142Z,880.857
2022-12-23T10:39:10.181Z,935.857
2022-12-23T10:40:10.224Z,973.357
2022-12-23T10:41:10.261Z,1490.86
2022-12-23T10:42:10.283Z,1615
2022-12-23T10:43:10.329Z,1502.5
2022-12-23T10:44:10.372Z,1399.21
2022-12-23T10:45:10.399Z,1437.5
2022-12-23T10:46:10.507Z,1410
2022-12-23T10:47:10.607Z,1595
2022-12-23T10:48:14.201Z,1618.36
2022-12-23T10:49:10.555Z,1582.5
2022-12-23T10:50:10.576Z,1638.36
2022-12-23T10:51:10.645Z,1633.36
2022-12-23T10:52:10.652Z,1495
2022-12-23T10:53:10.706Z,1558.36
2022-12-23T10:54:10.714Z,1438.36
2022-12-23T10:55:10.758Z,1296.71
2022-12-23T10:56:10.800Z,1105
2022-12-23T10:57:10.824Z,1214.21
2022-12-23T10:58:10.852Z,985
2022-12-23T10:59:11.132Z,790.857
2022-12-23T11:00:10.913Z,671.714
2022-12-23T11:01:17.552Z,586.714
2022-12-23T11:02:11.177Z,555
2022-12-23T11:03:11.174Z,435
2022-12-23T11:04:11.066Z,454.214
2022-12-23T11:05:11.088Z,455.857
2022-12-23T11:06:11.131Z,492.5
2022-12-23T11:07:42.884Z,522.5
2022-12-23T11:08:11.197Z,575.857
2022-12-23T11:09:11.231Z,525.857
2022-12-23T11:10:11.256Z,498.357
2022-12-23T11:11:11.329Z,440
2022-12-23T11:12:11.317Z,404.214
2022-12-23T11:13:11.342Z,440.857
2022-12-23T11:14:11.380Z,433.357
2022-12-23T11:15:11.426Z,427.5
2022-12-23T11:16:11.521Z,397.5
2022-12-23T11:17:11.482Z,440.857
2022-12-23T11:18:11.532Z,409.214
2022-12-23T11:19:11.547Z,428.357
2022-12-23T11:20:11.568Z,345.857
2022-12-23T11:21:11.628Z,408.357
2022-12-23T11:22:11.642Z,440
2022-12-23T11:23:11.685Z,421.714
2022-12-23T11:24:11.713Z,421.714
2022-12-23T11:25:11.741Z,459.214
2022-12-23T11:26:11.807Z,451.714
2022-12-23T11:27:11.833Z,469.214
2022-12-23T11:28:11.843Z,508.357
2022-12-23T11:29:11.895Z,450
2022-12-23T11:30:11.929Z,510
2022-12-23T11:31:12.404Z,555.857
2022-12-23T11:32:12.005Z,494.214
2022-12-23T11:33:12.049Z,421.714
2022-12-23T11:34:12.081Z,459.214
2022-12-23T11:35:12.169Z,414.214
2022-12-23T11:36:12.170Z,478.357
2022-12-23T11:37:12.187Z,442.5
2022-12-23T11:38:12.225Z,555
2022-12-23T11:39:12.235Z,538.357
2022-12-23T11:40:12.282Z,430.857
2022-12-23T11:41:12.341Z,427.5
2022-12-23T11:42:12.348Z,475.857
2022-12-23T11:43:12.388Z,321.714
2022-12-23T11:44:12.414Z,367.5
2022-12-23T11:45:12.445Z,394.214
2022-12-23T11:46:12.654Z,414.214
2022-12-23T11:47:12.522Z,412.5
2022-12-23T11:48:12.562Z,418.357
2022-12-23T11:49:12.600Z,459.214
2022-12-23T11:50:12.806Z,555
2022-12-23T11:51:12.655Z,445.857
2022-12-23T11:52:12.710Z,497.5
2022-12-23T11:53:12.725Z,540.857
2022-12-23T11:54:12.770Z,509.214
2022-12-23T11:55:12.798Z,519.214
2022-12-23T11:56:12.857Z,592.5
2022-12-23T11:57:12.956Z,615.857
2022-12-23T11:58:12.884Z,647.5
2022-12-23T11:59:12.944Z,755.857
2022-12-23T12:00:13.044Z,775.857
2022-12-23T12:01:13.020Z,628.357
2022-12-23T12:02:13.047Z,647.5
2022-12-23T12:03:13.092Z,569.214
2022-12-23T12:04:13.109Z,580.857
2022-12-23T12:05:13.106Z,589.214
2022-12-23T12:06:13.164Z,617.5
2022-12-23T12:07:13.202Z,735
2022-12-23T12:08:13.227Z,838.357
2022-12-23T12:09:13.260Z,845.857
2022-12-23T12:10:13.280Z,884.214
2022-12-23T12:11:13.315Z,875
2022-12-23T12:12:13.353Z,1001.71
2022-12-23T12:13:13.381Z,996.714
2022-12-23T12:14:13.411Z,1200
2022-12-23T12:15:13.466Z,1348.36
2022-12-23T12:16:13.532Z,1309.21
2022-12-23T12:17:13.562Z,1314.21
2022-12-23T12:18:13.553Z,1317.5
2022-12-23T12:19:13.606Z,1335.86
2022-12-23T12:20:13.622Z,1125
2022-12-23T12:21:13.656Z,1111.71
2022-12-23T12:22:13.691Z,1105
2022-12-23T12:23:13.739Z,1157.5
2022-12-23T12:24:19.025Z,1162.5
2022-12-23T12:25:13.779Z,1255
2022-12-23T12:26:13.815Z,1339.21
2022-12-23T12:27:13.846Z,1169.21
2022-12-23T12:28:13.907Z,1215
2022-12-23T12:29:13.917Z,1094.21
2022-12-23T12:30:13.970Z,1080
2022-12-23T12:31:14.035Z,1548.36
2022-12-23T12:32:14.007Z,1443.36
2022-12-23T12:33:14.045Z,1173.36
2022-12-23T12:34:15.133Z,1177.5
2022-12-23T12:35:14.111Z,1070
2022-12-23T12:36:14.214Z,947.5
2022-12-23T12:37:14.170Z,899.214
2022-12-23T12:38:14.209Z,1013.36
2022-12-23T12:39:14.250Z,1004.21
2022-12-23T12:40:14.317Z,1247.5
2022-12-23T12:41:14.360Z,1192.5
2022-12-23T12:42:14.334Z,723.357
2022-12-23T12:43:14.358Z,906.714
2022-12-23T12:44:14.403Z,1031.71
2022-12-23T12:45:14.453Z,1105.86
2022-12-23T12:46:14.647Z,835.857
2022-12-23T12:47:36.273Z,1000
2022-12-23T12:48:18.550Z,897.5
2022-12-23T12:49:14.558Z,865
2022-12-23T12:50:14.585Z,837.5
2022-12-23T12:51:15.639Z,822.5
2022-12-23T12:52:14.664Z,1102.5
2022-12-23T12:53:14.702Z,1048.36
2022-12-23T12:54:14.730Z,1199.21
2022-12-23T12:55:14.773Z,1244.21
2022-12-23T12:56:14.803Z,1044.21
2022-12-23T12:57:14.845Z,975.857
2022-12-23T12:58:14.865Z,1125
2022-12-23T12:59:14.894Z,1085.86
2022-12-23T13:00:14.941Z,1139.21
2022-12-23T13:01:14.998Z,1245.86
2022-12-23T13:02:15.082Z,1010.86
2022-12-23T13:03:15.023Z,1021.71
2022-12-23T13:04:15.094Z,1080
2022-12-23T13:05:15.110Z,973.357
2022-12-23T13:06:15.139Z,809.214
2022-12-23T13:07:15.164Z,691.714
2022-12-23T13:08:15.202Z,575
2022-12-23T13:09:15.244Z,545.857
2022-12-23T13:10:15.263Z,493.357
2022-12-23T13:11:15.294Z,405
2022-12-23T13:12:15.329Z,469.214
2022-12-23T13:13:15.354Z,423.357
2022-12-23T13:14:15.390Z,426.714
2022-12-23T13:15:15.418Z,399.214
2022-12-23T13:16:15.488Z,426.714
2022-12-23T13:17:15.672Z,472.5
2022-12-23T13:18:15.521Z,498.357
2022-12-23T13:19:15.551Z,429.214
2022-12-23T13:20:15.582Z,470
2022-12-23T13:21:15.611Z,413.357
2022-12-23T13:22:15.664Z,461.714
2022-12-23T13:23:42.423Z,555
2022-12-23T13:24:15.705Z,500.857
2022-12-23T13:25:15.749Z,430
2022-12-23T13:26:15.783Z,491.714
2022-12-23T13:27:15.814Z,521.714
2022-12-23T13:28:15.851Z,431.714
2022-12-23T13:29:15.877Z,425
2022-12-23T13:30:15.907Z,410
2022-12-23T13:31:16.002Z,325.857
2022-12-23T13:32:15.971Z,316.714
2022-12-23T13:33:16.005Z,293.357
2022-12-23T13:34:16.039Z,344.214
2022-12-23T13:35:16.074Z,338.357
2022-12-23T13:36:16.158Z,295
2022-12-23T13:37:16.147Z,351.714
2022-12-23T13:38:16.167Z,341.714
2022-12-23T13:39:16.217Z,370.857
2022-12-23T13:40:16.232Z,375.857
2022-12-23T13:41:16.268Z,387.5
2022-12-23T13:42:16.301Z,458.357
2022-12-23T13:43:16.373Z,398.357
2022-12-23T13:44:16.409Z,367.5
2022-12-23T13:45:16.419Z,373.357
2022-12-23T13:46:16.551Z,369.214
2022-12-23T13:47:16.480Z,326.714
2022-12-23T13:48:16.507Z,305.857
2022-12-23T13:49:16.572Z,255.857
2022-12-23T13:50:16.583Z,260
2022-12-23T13:51:16.616Z,264.214
2022-12-23T13:52:16.653Z,269.214
2022-12-23T13:53:16.700Z,261.714
2022-12-23T13:54:16.757Z,230.857
2022-12-23T13:55:16.765Z,230.857
2022-12-23T13:56:16.793Z,227.5
2022-12-23T13:57:16.823Z,240.857
2022-12-23T13:58:16.862Z,241.714
2022-12-23T13:59:16.888Z,227.5
2022-12-23T14:00:16.928Z,205
2022-12-23T14:01:16.991Z,199.214
2022-12-23T14:02:17.027Z,192.5
2022-12-23T14:03:17.115Z,191.714
2022-12-23T14:04:17.066Z,178.357
2022-12-23T14:05:17.100Z,160.857
2022-12-23T14:06:17.129Z,160
2022-12-23T14:07:17.162Z,165.857
2022-12-23T14:08:17.207Z,147.5
2022-12-23T14:09:17.249Z,126.714
2022-12-23T14:10:17.274Z,113.357
2022-12-23T14:11:17.303Z,110
2022-12-23T14:12:17.332Z,114.214
2022-12-23T14:13:17.368Z,116.714
2022-12-23T14:14:17.400Z,113.357
2022-12-23T14:15:17.441Z,112.5
2022-12-23T14:16:17.537Z,106.714
2022-12-23T14:17:17.508Z,100.857
2022-12-23T14:18:17.558Z,101.714
2022-12-23T14:19:17.581Z,111.714
2022-12-23T14:20:17.617Z,120.857
2022-12-23T14:21:17.649Z,113.357
2022-12-23T14:22:17.681Z,102.5
2022-12-23T14:23:17.719Z,100.857
2022-12-23T14:24:17.746Z,102.5
2022-12-23T14:25:17.787Z,100.857
2022-12-23T14:26:17.807Z,94.2143
2022-12-23T14:27:17.876Z,93.3571
2022-12-23T14:28:17.867Z,96.7143
2022-12-23T14:29:17.906Z,100
2022-12-23T14:30:17.962Z,106.714
2022-12-23T14:31:18.008Z,109.214
2022-12-23T14:32:18.010Z,106.714
2022-12-23T14:33:18.059Z,96.7143
2022-12-23T14:34:18.091Z,91.7143
2022-12-23T14:35:18.133Z,95
2022-12-23T14:36:18.235Z,91.7143
2022-12-23T14:37:18.187Z,82.5
2022-12-23T14:38:18.233Z,75.8571
2022-12-23T14:39:18.269Z,70.8571
2022-12-23T14:40:18.293Z,70.8571
2022-12-23T14:41:18.335Z,72.5
2022-12-23T14:42:18.369Z,75
2022-12-23T14:43:18.402Z,75.8571
2022-12-23T14:44:18.436Z,77.5
2022-12-23T14:45:18.462Z,76.7143
2022-12-23T14:46:18.513Z,72.5
2022-12-23T14:47:22.567Z,69.2143
2022-12-23T14:48:18.572Z,65.8571
2022-12-23T14:49:39.010Z,63.3571
2022-12-23T14:50:18.628Z,60.8571
2022-12-23T14:51:18.665Z,58.3571
2022-12-23T14:52:18.692Z,55
2022-12-23T14:53:18.733Z,53.3571
2022-12-23T14:54:18.768Z,50
2022-12-23T14:55:30.395Z,47.5
2022-12-23T14:56:18.837Z,45.8571
2022-12-23T14:57:18.855Z,42.5
2022-12-23T14:58:18.891Z,40
2022-12-23T14:59:18.926Z,36.7143
2022-12-23T15:00:18.971Z,33.3571
2022-12-23T15:01:19.034Z,30.8571
2022-12-23T15:02:19.094Z,28.3571
2022-12-23T15:03:19.140Z,25.8571
2022-12-23T15:04:19.100Z,23.3571
2022-12-23T15:05:19.140Z,21.7143
2022-12-23T15:06:19.161Z,19.2143
2022-12-23T15:07:19.201Z,17.5
2022-12-23T15:08:19.217Z,15.8571
2022-12-23T15:09:19.245Z,13.3571
2022-12-23T15:10:19.283Z,12.5
2022-12-23T15:11:19.324Z,10.8571
2022-12-23T15:12:19.363Z,9.21429
2022-12-23T15:13:19.383Z,8.35714
2022-12-23T15:14:19.421Z,6.71429
2022-12-23T15:15:19.463Z,5.85714
2022-12-23T15:16:19.557Z,5
2022-12-23T15:17:19.519Z,4.21429
2022-12-23T15:18:19.552Z,3.35714
2022-12-23T15:19:19.588Z,2.5
2022-12-23T15:20:19.622Z,2.5
2022-12-23T15:21:19.663Z,1.71429
2022-12-23T15:22:25.198Z,1.71429
2022-12-23T15:23:19.735Z,0.857143
2022-12-23T15:24:19.791Z,0.857143
2022-12-23T15:25:19.801Z,0.857143
